NCAR-RAP Real-Time Weather Data

Output produced by METARs form (12 May 2021  12:33 UTC)
found at http://weather.rap.ucar.edu/surface/
 
KDRA 121153Z AUTO 00000KT 10SM CLR 12/M12 A3003 RMK AO2 SLP130 T01171117 10189 20117 53008
KDRA 121053Z AUTO 00000KT 10SM CLR 13/M12 A3001 RMK AO2 SLP124 T01331122
KDRA 120953Z AUTO VRB03KT 10SM CLR 15/M12 A3000 RMK AO2 SLP118 T01501117
KDRA 120853Z AUTO 00000KT 10SM CLR 15/M12 A3000 RMK AO2 SLP119 T01501117 50005
KDRA 120753Z AUTO 07005KT 10SM CLR 17/M12 A3000 RMK AO2 SLP120 T01671117 402940150
KDRA 120653Z AUTO 11007KT 10SM CLR 17/M12 A2999 RMK AO2 SLP115 T01721122
KDRA 120553Z AUTO 09005KT 10SM CLR 18/M12 A2998 RMK AO2 SLP113 T01831122 10289 20178 51014
KDRA 120453Z AUTO 07005KT 10SM CLR 21/M12 A2997 RMK AO2 SLP110 T02061122
KDRA 120353Z AUTO 00000KT 10SM CLR 22/M13 A2996 RMK AO2 SLP105 T02171128
KDRA 120253Z AUTO 25006KT 10SM CLR 24/M12 A2994 RMK AO2 SLP098 T02441122 53001
KDRA 120153Z AUTO 23006KT 10SM CLR 27/M12 A2993 RMK AO2 SLP094 T02721122
KDRA 120053Z AUTO 22009KT 10SM CLR 28/M12 A2993 RMK AO2 SLP094 T02781122
KDRA 112353Z AUTO 10SM CLR 29/M12 A2993 RMK AO2 SLP094 T02891122 10294 20239 56015